General Rodriguez, Argentina
Current Conditions -  °F | °C
As of 9:00 PM on Wednesday 26 Nov 2014 (Local Time) from SADF Reporting Station
Clear Clear  
Wind Chill: 68°   Ceiling: Unl
Heat Index: 68°   Visibility: 6mi
Dew Point: 55°   Wind: 2mph
Humidity: 64%   Direction: 20°NNE
Pressure: 29.97"   Gusts: NA
Location:  34.6°S, 58.95°W
Report Text: SADF 270000Z 02002KT CAVOK 20/13 Q1015
Loading
Personal Weather Stations






























Interactive Weather Map New forecast layout! Learn more

10-Day Weather Forecast

Advertisements
Track Severe Weather on mobile